sensor_id;sensor_type;location;lat;lon;timestamp;P1;durP1;ratioP1;P2;durP2;ratioP2
10839;SDS011;5473;42.706;23.328;2022-09-12T00:01:07;0.30;;;0.30;;
10839;SDS011;5473;42.706;23.328;2022-09-12T00:03:35;0.30;;;0.30;;
10839;SDS011;5473;42.706;23.328;2022-09-12T00:06:06;0.30;;;0.30;;
10839;SDS011;5473;42.706;23.328;2022-09-12T00:08:35;0.30;;;0.30;;
10839;SDS011;5473;42.706;23.328;2022-09-12T00:11:06;0.30;;;0.30;;
10839;SDS011;5473;42.706;23.328;2022-09-12T00:13:35;0.30;;;0.30;;
10839;SDS011;5473;42.706;23.328;2022-09-12T00:16:02;0.30;;;0.30;;
10839;SDS011;5473;42.706;23.328;2022-09-12T00:18:30;0.30;;;0.30;;
10839;SDS011;5473;42.706;23.328;2022-09-12T00:21:00;0.30;;;0.30;;
10839;SDS011;5473;42.706;23.328;2022-09-12T00:23:29;0.30;;;0.30;;
10839;SDS011;5473;42.706;23.328;2022-09-12T00:25:57;0.30;;;0.30;;
10839;SDS011;5473;42.706;23.328;2022-09-12T00:28:24;0.30;;;0.30;;
10839;SDS011;5473;42.706;23.328;2022-09-12T00:30:52;0.30;;;0.30;;
10839;SDS011;5473;42.706;23.328;2022-09-12T00:33:18;0.30;;;0.30;;
10839;SDS011;5473;42.706;23.328;2022-09-12T00:35:46;0.30;;;0.30;;
10839;SDS011;5473;42.706;23.328;2022-09-12T00:38:14;0.30;;;0.30;;
10839;SDS011;5473;42.706;23.328;2022-09-12T00:40:42;0.40;;;0.40;;
10839;SDS011;5473;42.706;23.328;2022-09-12T00:43:11;0.40;;;0.40;;
10839;SDS011;5473;42.706;23.328;2022-09-12T00:45:40;0.30;;;0.30;;
10839;SDS011;5473;42.706;23.328;2022-09-12T00:48:07;0.30;;;0.30;;
10839;SDS011;5473;42.706;23.328;2022-09-12T00:50:46;0.30;;;0.30;;
10839;SDS011;5473;42.706;23.328;2022-09-12T00:53:14;0.30;;;0.30;;
10839;SDS011;5473;42.706;23.328;2022-09-12T00:55:42;0.30;;;0.30;;
10839;SDS011;5473;42.706;23.328;2022-09-12T00:58:16;0.30;;;0.30;;
10839;SDS011;5473;42.706;23.328;2022-09-12T01:00:45;0.30;;;0.30;;
10839;SDS011;5473;42.706;23.328;2022-09-12T01:03:13;0.40;;;0.40;;
10839;SDS011;5473;42.706;23.328;2022-09-12T01:05:43;0.30;;;0.30;;
10839;SDS011;5473;42.706;23.328;2022-09-12T01:08:24;0.40;;;0.40;;
10839;SDS011;5473;42.706;23.328;2022-09-12T01:10:52;0.40;;;0.40;;
10839;SDS011;5473;42.706;23.328;2022-09-12T01:13:22;0.37;;;0.37;;
10839;SDS011;5473;42.706;23.328;2022-09-12T01:15:49;0.37;;;0.37;;
10839;SDS011;5473;42.706;23.328;2022-09-12T01:18:18;0.40;;;0.40;;
10839;SDS011;5473;42.706;23.328;2022-09-12T01:20:53;0.40;;;0.40;;
10839;SDS011;5473;42.706;23.328;2022-09-12T01:29:51;0.30;;;0.30;;
10839;SDS011;5473;42.706;23.328;2022-09-12T01:32:56;0.30;;;0.30;;
10839;SDS011;5473;42.706;23.328;2022-09-12T01:35:44;0.40;;;0.40;;
10839;SDS011;5473;42.706;23.328;2022-09-12T01:38:20;0.30;;;0.30;;
10839;SDS011;5473;42.706;23.328;2022-09-12T01:40:56;0.30;;;0.30;;
10839;SDS011;5473;42.706;23.328;2022-09-12T01:43:31;0.40;;;0.40;;
10839;SDS011;5473;42.706;23.328;2022-09-12T01:46:05;0.30;;;0.30;;
10839;SDS011;5473;42.706;23.328;2022-09-12T01:48:39;0.40;;;0.40;;
10839;SDS011;5473;42.706;23.328;2022-09-12T01:51:14;0.40;;;0.40;;
10839;SDS011;5473;42.706;23.328;2022-09-12T01:53:47;0.40;;;0.40;;
10839;SDS011;5473;42.706;23.328;2022-09-12T01:56:18;0.30;;;0.30;;
10839;SDS011;5473;42.706;23.328;2022-09-12T01:58:51;0.40;;;0.40;;
10839;SDS011;5473;42.706;23.328;2022-09-12T02:01:23;0.40;;;0.40;;
10839;SDS011;5473;42.706;23.328;2022-09-12T02:03:56;0.40;;;0.40;;
10839;SDS011;5473;42.706;23.328;2022-09-12T02:06:30;0.40;;;0.40;;
10839;SDS011;5473;42.706;23.328;2022-09-12T02:09:02;0.40;;;0.40;;
10839;SDS011;5473;42.706;23.328;2022-09-12T02:11:34;0.40;;;0.40;;
10839;SDS011;5473;42.706;23.328;2022-09-12T02:14:08;0.40;;;0.40;;
10839;SDS011;5473;42.706;23.328;2022-09-12T02:16:39;0.40;;;0.40;;
10839;SDS011;5473;42.706;23.328;2022-09-12T02:19:09;0.40;;;0.40;;
10839;SDS011;5473;42.706;23.328;2022-09-12T02:21:43;0.30;;;0.30;;
10839;SDS011;5473;42.706;23.328;2022-09-12T02:24:16;0.30;;;0.30;;
10839;SDS011;5473;42.706;23.328;2022-09-12T02:26:46;0.30;;;0.30;;
10839;SDS011;5473;42.706;23.328;2022-09-12T02:29:15;0.40;;;0.40;;
10839;SDS011;5473;42.706;23.328;2022-09-12T02:31:43;0.40;;;0.40;;
10839;SDS011;5473;42.706;23.328;2022-09-12T02:34:20;0.40;;;0.40;;
10839;SDS011;5473;42.706;23.328;2022-09-12T02:37:00;0.40;;;0.40;;
10839;SDS011;5473;42.706;23.328;2022-09-12T02:39:32;0.33;;;0.33;;
10839;SDS011;5473;42.706;23.328;2022-09-12T02:42:00;0.40;;;0.40;;
10839;SDS011;5473;42.706;23.328;2022-09-12T02:44:29;0.40;;;0.40;;
10839;SDS011;5473;42.706;23.328;2022-09-12T02:46:58;0.40;;;0.40;;
10839;SDS011;5473;42.706;23.328;2022-09-12T02:49:30;0.40;;;0.40;;
10839;SDS011;5473;42.706;23.328;2022-09-12T02:51:57;0.40;;;0.40;;
10839;SDS011;5473;42.706;23.328;2022-09-12T02:54:25;0.40;;;0.40;;
10839;SDS011;5473;42.706;23.328;2022-09-12T02:56:53;0.40;;;0.40;;
10839;SDS011;5473;42.706;23.328;2022-09-12T02:59:20;0.30;;;0.30;;
10839;SDS011;5473;42.706;23.328;2022-09-12T03:01:54;0.40;;;0.40;;
10839;SDS011;5473;42.706;23.328;2022-09-12T03:04:40;0.40;;;0.40;;
10839;SDS011;5473;42.706;23.328;2022-09-12T03:07:22;0.40;;;0.40;;
10839;SDS011;5473;42.706;23.328;2022-09-12T03:10:02;0.40;;;0.40;;
10839;SDS011;5473;42.706;23.328;2022-09-12T03:12:39;0.40;;;0.40;;
10839;SDS011;5473;42.706;23.328;2022-09-12T03:15:18;0.40;;;0.40;;
10839;SDS011;5473;42.706;23.328;2022-09-12T03:17:56;0.40;;;0.40;;
10839;SDS011;5473;42.706;23.328;2022-09-12T03:20:42;0.40;;;0.40;;
10839;SDS011;5473;42.706;23.328;2022-09-12T03:23:21;0.50;;;0.50;;
10839;SDS011;5473;42.706;23.328;2022-09-12T03:25:55;0.40;;;0.40;;
10839;SDS011;5473;42.706;23.328;2022-09-12T03:28:26;0.40;;;0.40;;
10839;SDS011;5473;42.706;23.328;2022-09-12T03:30:53;0.37;;;0.37;;
10839;SDS011;5473;42.706;23.328;2022-09-12T03:33:21;0.43;;;0.43;;
10839;SDS011;5473;42.706;23.328;2022-09-12T03:35:50;0.40;;;0.40;;
10839;SDS011;5473;42.706;23.328;2022-09-12T03:38:18;0.40;;;0.40;;
10839;SDS011;5473;42.706;23.328;2022-09-12T03:40:45;0.43;;;0.43;;
10839;SDS011;5473;42.706;23.328;2022-09-12T03:43:14;0.40;;;0.40;;
10839;SDS011;5473;42.706;23.328;2022-09-12T03:45:41;0.40;;;0.40;;
10839;SDS011;5473;42.706;23.328;2022-09-12T03:48:08;0.40;;;0.40;;
10839;SDS011;5473;42.706;23.328;2022-09-12T03:50:35;0.40;;;0.40;;
10839;SDS011;5473;42.706;23.328;2022-09-12T03:53:03;0.40;;;0.40;;
10839;SDS011;5473;42.706;23.328;2022-09-12T03:55:30;0.40;;;0.40;;
10839;SDS011;5473;42.706;23.328;2022-09-12T03:57:57;0.40;;;0.40;;
10839;SDS011;5473;42.706;23.328;2022-09-12T04:00:23;0.40;;;0.40;;
10839;SDS011;5473;42.706;23.328;2022-09-12T04:02:54;0.40;;;0.40;;
10839;SDS011;5473;42.706;23.328;2022-09-12T04:05:21;0.30;;;0.30;;
10839;SDS011;5473;42.706;23.328;2022-09-12T04:07:48;0.40;;;0.40;;
10839;SDS011;5473;42.706;23.328;2022-09-12T04:10:16;0.40;;;0.40;;
10839;SDS011;5473;42.706;23.328;2022-09-12T04:12:43;0.40;;;0.40;;
10839;SDS011;5473;42.706;23.328;2022-09-12T04:15:10;0.40;;;0.40;;
10839;SDS011;5473;42.706;23.328;2022-09-12T04:17:37;0.40;;;0.40;;
10839;SDS011;5473;42.706;23.328;2022-09-12T04:20:04;0.30;;;0.30;;
10839;SDS011;5473;42.706;23.328;2022-09-12T04:22:31;0.40;;;0.40;;
10839;SDS011;5473;42.706;23.328;2022-09-12T04:24:58;0.40;;;0.40;;
10839;SDS011;5473;42.706;23.328;2022-09-12T04:27:26;0.40;;;0.40;;
10839;SDS011;5473;42.706;23.328;2022-09-12T04:29:54;0.40;;;0.40;;
10839;SDS011;5473;42.706;23.328;2022-09-12T04:32:21;0.40;;;0.40;;
10839;SDS011;5473;42.706;23.328;2022-09-12T04:34:48;0.40;;;0.40;;
10839;SDS011;5473;42.706;23.328;2022-09-12T04:37:16;0.40;;;0.40;;
10839;SDS011;5473;42.706;23.328;2022-09-12T04:39:43;0.30;;;0.30;;
10839;SDS011;5473;42.706;23.328;2022-09-12T04:42:10;0.40;;;0.40;;
10839;SDS011;5473;42.706;23.328;2022-09-12T04:44:38;0.40;;;0.40;;
10839;SDS011;5473;42.706;23.328;2022-09-12T04:47:05;0.40;;;0.40;;
10839;SDS011;5473;42.706;23.328;2022-09-12T04:49:31;0.30;;;0.30;;
10839;SDS011;5473;42.706;23.328;2022-09-12T04:51:58;0.30;;;0.30;;
10839;SDS011;5473;42.706;23.328;2022-09-12T04:54:25;0.30;;;0.30;;
10839;SDS011;5473;42.706;23.328;2022-09-12T04:56:52;0.30;;;0.30;;
10839;SDS011;5473;42.706;23.328;2022-09-12T04:59:19;0.33;;;0.33;;
10839;SDS011;5473;42.706;23.328;2022-09-12T05:01:48;0.30;;;0.30;;
10839;SDS011;5473;42.706;23.328;2022-09-12T05:04:15;0.40;;;0.40;;
10839;SDS011;5473;42.706;23.328;2022-09-12T05:06:42;0.30;;;0.30;;
10839;SDS011;5473;42.706;23.328;2022-09-12T05:09:11;0.40;;;0.40;;
10839;SDS011;5473;42.706;23.328;2022-09-12T05:11:40;0.40;;;0.40;;
10839;SDS011;5473;42.706;23.328;2022-09-12T05:14:08;0.40;;;0.40;;
10839;SDS011;5473;42.706;23.328;2022-09-12T05:16:35;0.30;;;0.30;;
10839;SDS011;5473;42.706;23.328;2022-09-12T05:19:03;0.30;;;0.30;;
10839;SDS011;5473;42.706;23.328;2022-09-12T05:21:30;0.30;;;0.30;;
10839;SDS011;5473;42.706;23.328;2022-09-12T05:23:57;0.30;;;0.30;;
10839;SDS011;5473;42.706;23.328;2022-09-12T05:26:24;0.30;;;0.30;;
10839;SDS011;5473;42.706;23.328;2022-09-12T05:28:51;0.30;;;0.30;;
10839;SDS011;5473;42.706;23.328;2022-09-12T05:31:20;0.30;;;0.30;;
10839;SDS011;5473;42.706;23.328;2022-09-12T05:33:49;0.20;;;0.20;;
10839;SDS011;5473;42.706;23.328;2022-09-12T05:36:19;0.20;;;0.20;;
10839;SDS011;5473;42.706;23.328;2022-09-12T05:38:48;0.20;;;0.20;;
10839;SDS011;5473;42.706;23.328;2022-09-12T05:41:15;0.20;;;0.20;;
10839;SDS011;5473;42.706;23.328;2022-09-12T05:43:44;0.20;;;0.20;;
10839;SDS011;5473;42.706;23.328;2022-09-12T05:46:12;0.10;;;0.10;;
10839;SDS011;5473;42.706;23.328;2022-09-12T05:48:41;0.10;;;0.10;;
10839;SDS011;5473;42.706;23.328;2022-09-12T05:51:10;0.10;;;0.10;;
10839;SDS011;5473;42.706;23.328;2022-09-12T05:53:40;0.10;;;0.10;;
10839;SDS011;5473;42.706;23.328;2022-09-12T05:56:08;0.10;;;0.10;;
10839;SDS011;5473;42.706;23.328;2022-09-12T05:58:37;0.10;;;0.10;;
10839;SDS011;5473;42.706;23.328;2022-09-12T06:01:06;0.10;;;0.10;;
10839;SDS011;5473;42.706;23.328;2022-09-12T06:03:35;0.17;;;0.17;;
10839;SDS011;5473;42.706;23.328;2022-09-12T06:06:05;0.20;;;0.20;;
10839;SDS011;5473;42.706;23.328;2022-09-12T06:08:33;0.10;;;0.10;;
10839;SDS011;5473;42.706;23.328;2022-09-12T06:11:03;0.20;;;0.20;;
10839;SDS011;5473;42.706;23.328;2022-09-12T06:13:31;0.10;;;0.10;;
10839;SDS011;5473;42.706;23.328;2022-09-12T06:16:01;0.10;;;0.10;;
10839;SDS011;5473;42.706;23.328;2022-09-12T06:18:29;0.10;;;0.10;;
10839;SDS011;5473;42.706;23.328;2022-09-12T06:20:56;0.10;;;0.10;;
10839;SDS011;5473;42.706;23.328;2022-09-12T06:23:23;0.10;;;0.10;;
10839;SDS011;5473;42.706;23.328;2022-09-12T06:25:51;0.10;;;0.10;;
10839;SDS011;5473;42.706;23.328;2022-09-12T06:28:20;0.10;;;0.10;;
10839;SDS011;5473;42.706;23.328;2022-09-12T06:30:47;0.10;;;0.10;;
10839;SDS011;5473;42.706;23.328;2022-09-12T06:33:14;0.10;;;0.10;;
10839;SDS011;5473;42.706;23.328;2022-09-12T06:35:41;0.10;;;0.10;;
10839;SDS011;5473;42.706;23.328;2022-09-12T06:38:08;0.10;;;0.10;;
10839;SDS011;5473;42.706;23.328;2022-09-12T06:40:39;0.10;;;0.10;;
10839;SDS011;5473;42.706;23.328;2022-09-12T06:43:08;0.10;;;0.10;;
10839;SDS011;5473;42.706;23.328;2022-09-12T06:45:37;0.10;;;0.10;;
10839;SDS011;5473;42.706;23.328;2022-09-12T06:48:04;0.10;;;0.10;;
10839;SDS011;5473;42.706;23.328;2022-09-12T06:50:31;0.10;;;0.10;;
10839;SDS011;5473;42.706;23.328;2022-09-12T06:52:58;0.10;;;0.10;;
10839;SDS011;5473;42.706;23.328;2022-09-12T06:55:25;0.10;;;0.10;;
10839;SDS011;5473;42.706;23.328;2022-09-12T06:57:53;0.10;;;0.10;;
10839;SDS011;5473;42.706;23.328;2022-09-12T07:00:20;0.10;;;0.10;;
10839;SDS011;5473;42.706;23.328;2022-09-12T07:02:50;0.10;;;0.10;;
10839;SDS011;5473;42.706;23.328;2022-09-12T07:05:19;0.10;;;0.10;;
10839;SDS011;5473;42.706;23.328;2022-09-12T07:07:46;0.10;;;0.10;;
10839;SDS011;5473;42.706;23.328;2022-09-12T07:10:13;0.10;;;0.10;;
10839;SDS011;5473;42.706;23.328;2022-09-12T07:12:40;0.10;;;0.10;;
10839;SDS011;5473;42.706;23.328;2022-09-12T07:15:07;0.10;;;0.10;;
10839;SDS011;5473;42.706;23.328;2022-09-12T07:17:35;0.00;;;0.00;;
10839;SDS011;5473;42.706;23.328;2022-09-12T07:20:03;0.10;;;0.10;;
10839;SDS011;5473;42.706;23.328;2022-09-12T07:22:30;0.10;;;0.10;;
10839;SDS011;5473;42.706;23.328;2022-09-12T07:24:57;0.10;;;0.10;;
10839;SDS011;5473;42.706;23.328;2022-09-12T07:27:24;0.10;;;0.10;;
10839;SDS011;5473;42.706;23.328;2022-09-12T07:29:51;0.10;;;0.10;;
10839;SDS011;5473;42.706;23.328;2022-09-12T07:32:18;0.10;;;0.10;;
10839;SDS011;5473;42.706;23.328;2022-09-12T07:34:44;0.10;;;0.10;;
10839;SDS011;5473;42.706;23.328;2022-09-12T07:37:13;0.10;;;0.10;;
10839;SDS011;5473;42.706;23.328;2022-09-12T07:39:39;0.10;;;0.10;;
10839;SDS011;5473;42.706;23.328;2022-09-12T07:42:06;0.10;;;0.10;;
10839;SDS011;5473;42.706;23.328;2022-09-12T07:44:33;0.10;;;0.10;;
10839;SDS011;5473;42.706;23.328;2022-09-12T07:47:00;0.10;;;0.10;;
10839;SDS011;5473;42.706;23.328;2022-09-12T07:49:27;0.10;;;0.10;;
10839;SDS011;5473;42.706;23.328;2022-09-12T07:51:55;0.07;;;0.07;;
10839;SDS011;5473;42.706;23.328;2022-09-12T07:54:23;0.10;;;0.10;;
10839;SDS011;5473;42.706;23.328;2022-09-12T07:56:50;0.00;;;0.00;;
10839;SDS011;5473;42.706;23.328;2022-09-12T07:59:17;0.10;;;0.10;;
10839;SDS011;5473;42.706;23.328;2022-09-12T08:01:44;0.00;;;0.00;;
10839;SDS011;5473;42.706;23.328;2022-09-12T08:04:11;0.10;;;0.10;;
10839;SDS011;5473;42.706;23.328;2022-09-12T08:06:38;0.00;;;0.00;;
10839;SDS011;5473;42.706;23.328;2022-09-12T08:09:05;0.10;;;0.10;;
10839;SDS011;5473;42.706;23.328;2022-09-12T08:11:33;0.10;;;0.10;;
10839;SDS011;5473;42.706;23.328;2022-09-12T08:14:00;0.10;;;0.10;;
10839;SDS011;5473;42.706;23.328;2022-09-12T08:16:30;0.10;;;0.10;;
10839;SDS011;5473;42.706;23.328;2022-09-12T08:18:59;0.10;;;0.10;;
10839;SDS011;5473;42.706;23.328;2022-09-12T08:21:27;0.10;;;0.10;;
10839;SDS011;5473;42.706;23.328;2022-09-12T08:23:56;0.00;;;0.00;;
10839;SDS011;5473;42.706;23.328;2022-09-12T08:26:25;0.00;;;0.00;;
10839;SDS011;5473;42.706;23.328;2022-09-12T08:28:53;0.00;;;0.00;;
10839;SDS011;5473;42.706;23.328;2022-09-12T08:31:21;0.10;;;0.10;;
10839;SDS011;5473;42.706;23.328;2022-09-12T08:33:49;0.10;;;0.10;;
10839;SDS011;5473;42.706;23.328;2022-09-12T08:36:17;0.10;;;0.10;;
10839;SDS011;5473;42.706;23.328;2022-09-12T08:38:46;0.10;;;0.10;;
10839;SDS011;5473;42.706;23.328;2022-09-12T08:41:18;0.10;;;0.10;;
10839;SDS011;5473;42.706;23.328;2022-09-12T08:43:56;0.10;;;0.10;;
10839;SDS011;5473;42.706;23.328;2022-09-12T08:46:33;0.10;;;0.10;;
10839;SDS011;5473;42.706;23.328;2022-09-12T08:49:04;0.10;;;0.10;;
10839;SDS011;5473;42.706;23.328;2022-09-12T08:51:36;0.10;;;0.10;;
10839;SDS011;5473;42.706;23.328;2022-09-12T08:54:04;0.10;;;0.10;;
10839;SDS011;5473;42.706;23.328;2022-09-12T08:56:42;0.10;;;0.10;;
10839;SDS011;5473;42.706;23.328;2022-09-12T08:59:11;0.10;;;0.10;;
10839;SDS011;5473;42.706;23.328;2022-09-12T09:01:40;0.10;;;0.10;;
10839;SDS011;5473;42.706;23.328;2022-09-12T09:04:17;0.10;;;0.10;;
10839;SDS011;5473;42.706;23.328;2022-09-12T09:06:56;0.10;;;0.10;;
10839;SDS011;5473;42.706;23.328;2022-09-12T09:09:41;0.10;;;0.10;;
10839;SDS011;5473;42.706;23.328;2022-09-12T09:12:21;0.03;;;0.03;;
10839;SDS011;5473;42.706;23.328;2022-09-12T09:15:05;0.10;;;0.10;;
10839;SDS011;5473;42.706;23.328;2022-09-12T09:17:46;0.00;;;0.00;;
10839;SDS011;5473;42.706;23.328;2022-09-12T09:20:20;0.00;;;0.00;;
10839;SDS011;5473;42.706;23.328;2022-09-12T09:22:54;0.00;;;0.00;;
10839;SDS011;5473;42.706;23.328;2022-09-12T09:25:25;0.00;;;0.00;;
10839;SDS011;5473;42.706;23.328;2022-09-12T09:28:03;0.00;;;0.00;;
10839;SDS011;5473;42.706;23.328;2022-09-12T09:30:44;0.00;;;0.00;;
10839;SDS011;5473;42.706;23.328;2022-09-12T09:33:14;0.10;;;0.10;;
10839;SDS011;5473;42.706;23.328;2022-09-12T09:35:47;0.00;;;0.00;;
10839;SDS011;5473;42.706;23.328;2022-09-12T09:38:24;0.00;;;0.00;;
10839;SDS011;5473;42.706;23.328;2022-09-12T09:41:07;0.00;;;0.00;;
10839;SDS011;5473;42.706;23.328;2022-09-12T09:43:51;0.00;;;0.00;;
10839;SDS011;5473;42.706;23.328;2022-09-12T09:46:19;0.10;;;0.10;;
10839;SDS011;5473;42.706;23.328;2022-09-12T09:48:46;0.10;;;0.10;;
10839;SDS011;5473;42.706;23.328;2022-09-12T09:51:15;0.00;;;0.00;;
10839;SDS011;5473;42.706;23.328;2022-09-12T09:53:51;0.00;;;0.00;;
10839;SDS011;5473;42.706;23.328;2022-09-12T09:56:25;0.00;;;0.00;;
10839;SDS011;5473;42.706;23.328;2022-09-12T09:58:54;0.00;;;0.00;;
10839;SDS011;5473;42.706;23.328;2022-09-12T10:01:22;0.00;;;0.00;;
10839;SDS011;5473;42.706;23.328;2022-09-12T10:03:49;0.00;;;0.00;;
10839;SDS011;5473;42.706;23.328;2022-09-12T10:06:21;0.00;;;0.00;;
10839;SDS011;5473;42.706;23.328;2022-09-12T10:08:51;0.10;;;0.10;;
10839;SDS011;5473;42.706;23.328;2022-09-12T10:11:30;0.05;;;0.05;;
10839;SDS011;5473;42.706;23.328;2022-09-12T10:13:58;0.10;;;0.10;;
10839;SDS011;5473;42.706;23.328;2022-09-12T10:16:27;0.00;;;0.00;;
10839;SDS011;5473;42.706;23.328;2022-09-12T10:18:56;0.10;;;0.10;;
10839;SDS011;5473;42.706;23.328;2022-09-12T10:21:26;0.00;;;0.00;;
10839;SDS011;5473;42.706;23.328;2022-09-12T10:24:19;0.00;;;0.00;;
10839;SDS011;5473;42.706;23.328;2022-09-12T10:26:50;0.00;;;0.00;;
10839;SDS011;5473;42.706;23.328;2022-09-12T10:29:21;0.00;;;0.00;;
10839;SDS011;5473;42.706;23.328;2022-09-12T10:31:53;0.00;;;0.00;;
10839;SDS011;5473;42.706;23.328;2022-09-12T10:34:23;0.00;;;0.00;;
10839;SDS011;5473;42.706;23.328;2022-09-12T10:36:58;0.00;;;0.00;;
10839;SDS011;5473;42.706;23.328;2022-09-12T10:39:27;0.00;;;0.00;;
10839;SDS011;5473;42.706;23.328;2022-09-12T10:41:55;0.00;;;0.00;;
10839;SDS011;5473;42.706;23.328;2022-09-12T10:44:25;0.00;;;0.00;;
10839;SDS011;5473;42.706;23.328;2022-09-12T10:46:56;0.00;;;0.00;;
10839;SDS011;5473;42.706;23.328;2022-09-12T10:49:27;0.00;;;0.00;;
10839;SDS011;5473;42.706;23.328;2022-09-12T10:51:56;0.00;;;0.00;;
10839;SDS011;5473;42.706;23.328;2022-09-12T10:54:41;0.00;;;0.00;;
10839;SDS011;5473;42.706;23.328;2022-09-12T10:57:27;0.00;;;0.00;;
10839;SDS011;5473;42.706;23.328;2022-09-12T11:00:15;0.00;;;0.00;;
10839;SDS011;5473;42.706;23.328;2022-09-12T11:02:56;0.00;;;0.00;;
10839;SDS011;5473;42.706;23.328;2022-09-12T11:05:40;0.10;;;0.10;;
10839;SDS011;5473;42.706;23.328;2022-09-12T11:08:18;0.10;;;0.10;;
10839;SDS011;5473;42.706;23.328;2022-09-12T11:10:58;0.10;;;0.10;;
10839;SDS011;5473;42.706;23.328;2022-09-12T11:13:40;0.00;;;0.00;;
10839;SDS011;5473;42.706;23.328;2022-09-12T11:16:22;0.00;;;0.00;;
10839;SDS011;5473;42.706;23.328;2022-09-12T11:19:07;0.00;;;0.00;;
10839;SDS011;5473;42.706;23.328;2022-09-12T11:21:56;0.00;;;0.00;;
10839;SDS011;5473;42.706;23.328;2022-09-12T11:24:36;0.03;;;0.03;;
10839;SDS011;5473;42.706;23.328;2022-09-12T11:27:14;0.10;;;0.10;;
10839;SDS011;5473;42.706;23.328;2022-09-12T11:29:53;0.10;;;0.10;;
10839;SDS011;5473;42.706;23.328;2022-09-12T11:32:31;0.10;;;0.10;;
10839;SDS011;5473;42.706;23.328;2022-09-12T11:35:23;0.10;;;0.10;;
10839;SDS011;5473;42.706;23.328;2022-09-12T11:38:09;0.10;;;0.10;;
10839;SDS011;5473;42.706;23.328;2022-09-12T11:40:55;0.10;;;0.10;;
10839;SDS011;5473;42.706;23.328;2022-09-12T11:43:28;0.10;;;0.10;;
10839;SDS011;5473;42.706;23.328;2022-09-12T11:46:03;0.00;;;0.00;;
10839;SDS011;5473;42.706;23.328;2022-09-12T11:48:39;0.07;;;0.07;;
10839;SDS011;5473;42.706;23.328;2022-09-12T11:51:16;0.00;;;0.00;;
10839;SDS011;5473;42.706;23.328;2022-09-12T11:53:56;0.00;;;0.00;;
10839;SDS011;5473;42.706;23.328;2022-09-12T11:56:27;0.10;;;0.10;;
10839;SDS011;5473;42.706;23.328;2022-09-12T11:58:56;0.10;;;0.10;;
10839;SDS011;5473;42.706;23.328;2022-09-12T12:01:30;0.10;;;0.10;;
10839;SDS011;5473;42.706;23.328;2022-09-12T12:04:02;0.00;;;0.00;;
10839;SDS011;5473;42.706;23.328;2022-09-12T12:06:38;0.10;;;0.10;;
10839;SDS011;5473;42.706;23.328;2022-09-12T12:09:14;0.07;;;0.07;;
10839;SDS011;5473;42.706;23.328;2022-09-12T12:11:42;0.10;;;0.10;;
10839;SDS011;5473;42.706;23.328;2022-09-12T12:14:14;0.10;;;0.10;;
10839;SDS011;5473;42.706;23.328;2022-09-12T12:16:43;0.00;;;0.00;;
10839;SDS011;5473;42.706;23.328;2022-09-12T12:19:21;0.10;;;0.10;;
10839;SDS011;5473;42.706;23.328;2022-09-12T12:21:57;0.00;;;0.00;;
10839;SDS011;5473;42.706;23.328;2022-09-12T12:24:32;0.10;;;0.10;;
10839;SDS011;5473;42.706;23.328;2022-09-12T12:27:00;0.10;;;0.10;;
10839;SDS011;5473;42.706;23.328;2022-09-12T12:32:22;0.10;;;0.10;;
10839;SDS011;5473;42.706;23.328;2022-09-12T12:37:57;0.00;;;0.00;;
10839;SDS011;5473;42.706;23.328;2022-09-12T12:40:26;0.10;;;0.10;;
10839;SDS011;5473;42.706;23.328;2022-09-12T12:43:03;0.03;;;0.03;;
10839;SDS011;5473;42.706;23.328;2022-09-12T12:46:03;0.10;;;0.10;;
10839;SDS011;5473;42.706;23.328;2022-09-12T12:48:42;0.10;;;0.10;;
10839;SDS011;5473;42.706;23.328;2022-09-12T12:51:26;0.10;;;0.10;;
10839;SDS011;5473;42.706;23.328;2022-09-12T12:53:58;0.10;;;0.10;;
10839;SDS011;5473;42.706;23.328;2022-09-12T12:56:29;0.10;;;0.10;;
10839;SDS011;5473;42.706;23.328;2022-09-12T12:59:00;0.10;;;0.10;;
10839;SDS011;5473;42.706;23.328;2022-09-12T13:01:30;0.10;;;0.10;;
10839;SDS011;5473;42.706;23.328;2022-09-12T13:04:04;0.10;;;0.10;;
10839;SDS011;5473;42.706;23.328;2022-09-12T13:06:40;0.10;;;0.10;;
10839;SDS011;5473;42.706;23.328;2022-09-12T13:09:21;0.10;;;0.10;;
10839;SDS011;5473;42.706;23.328;2022-09-12T13:11:56;0.20;;;0.20;;
10839;SDS011;5473;42.706;23.328;2022-09-12T13:14:48;0.20;;;0.20;;
10839;SDS011;5473;42.706;23.328;2022-09-12T13:17:19;0.10;;;0.10;;
10839;SDS011;5473;42.706;23.328;2022-09-12T13:19:50;0.10;;;0.10;;
10839;SDS011;5473;42.706;23.328;2022-09-12T13:22:21;0.10;;;0.10;;
10839;SDS011;5473;42.706;23.328;2022-09-12T13:24:51;0.10;;;0.10;;
10839;SDS011;5473;42.706;23.328;2022-09-12T13:27:19;0.10;;;0.10;;
10839;SDS011;5473;42.706;23.328;2022-09-12T13:29:47;0.10;;;0.10;;
10839;SDS011;5473;42.706;23.328;2022-09-12T13:32:15;0.10;;;0.10;;
10839;SDS011;5473;42.706;23.328;2022-09-12T13:34:50;0.10;;;0.10;;
10839;SDS011;5473;42.706;23.328;2022-09-12T13:37:33;0.10;;;0.10;;
10839;SDS011;5473;42.706;23.328;2022-09-12T13:40:15;0.10;;;0.10;;
10839;SDS011;5473;42.706;23.328;2022-09-12T13:43:01;0.10;;;0.10;;
10839;SDS011;5473;42.706;23.328;2022-09-12T13:45:34;0.10;;;0.10;;
10839;SDS011;5473;42.706;23.328;2022-09-12T13:48:03;0.10;;;0.10;;
10839;SDS011;5473;42.706;23.328;2022-09-12T13:50:36;0.10;;;0.10;;
10839;SDS011;5473;42.706;23.328;2022-09-12T13:53:13;0.10;;;0.10;;
10839;SDS011;5473;42.706;23.328;2022-09-12T13:55:48;0.10;;;0.10;;
10839;SDS011;5473;42.706;23.328;2022-09-12T13:58:19;0.10;;;0.10;;
10839;SDS011;5473;42.706;23.328;2022-09-12T14:00:58;0.10;;;0.10;;
10839;SDS011;5473;42.706;23.328;2022-09-12T14:03:27;0.20;;;0.20;;
10839;SDS011;5473;42.706;23.328;2022-09-12T14:06:12;0.10;;;0.10;;
10839;SDS011;5473;42.706;23.328;2022-09-12T14:08:40;0.10;;;0.10;;
10839;SDS011;5473;42.706;23.328;2022-09-12T14:11:10;0.10;;;0.10;;
10839;SDS011;5473;42.706;23.328;2022-09-12T14:13:44;0.10;;;0.10;;
10839;SDS011;5473;42.706;23.328;2022-09-12T14:16:12;0.10;;;0.10;;
10839;SDS011;5473;42.706;23.328;2022-09-12T14:18:41;0.10;;;0.10;;
10839;SDS011;5473;42.706;23.328;2022-09-12T14:21:10;0.20;;;0.20;;
10839;SDS011;5473;42.706;23.328;2022-09-12T14:23:44;0.13;;;0.13;;
10839;SDS011;5473;42.706;23.328;2022-09-12T14:26:14;0.20;;;0.20;;
10839;SDS011;5473;42.706;23.328;2022-09-12T14:28:43;0.20;;;0.20;;
10839;SDS011;5473;42.706;23.328;2022-09-12T14:31:19;0.20;;;0.20;;
10839;SDS011;5473;42.706;23.328;2022-09-12T14:33:49;0.20;;;0.20;;
10839;SDS011;5473;42.706;23.328;2022-09-12T14:36:21;0.20;;;0.20;;
10839;SDS011;5473;42.706;23.328;2022-09-12T14:38:52;0.20;;;0.20;;
10839;SDS011;5473;42.706;23.328;2022-09-12T14:41:25;0.20;;;0.20;;
10839;SDS011;5473;42.706;23.328;2022-09-12T14:43:55;0.10;;;0.10;;
10839;SDS011;5473;42.706;23.328;2022-09-12T14:46:26;0.20;;;0.20;;
10839;SDS011;5473;42.706;23.328;2022-09-12T14:48:56;0.20;;;0.20;;
10839;SDS011;5473;42.706;23.328;2022-09-12T14:51:27;0.20;;;0.20;;
10839;SDS011;5473;42.706;23.328;2022-09-12T14:53:58;0.20;;;0.20;;
10839;SDS011;5473;42.706;23.328;2022-09-12T14:56:37;0.10;;;0.10;;
10839;SDS011;5473;42.706;23.328;2022-09-12T14:59:19;0.10;;;0.10;;
10839;SDS011;5473;42.706;23.328;2022-09-12T15:04:51;0.20;;;0.20;;
10839;SDS011;5473;42.706;23.328;2022-09-12T15:07:25;0.20;;;0.20;;
10839;SDS011;5473;42.706;23.328;2022-09-12T15:09:57;0.20;;;0.20;;
10839;SDS011;5473;42.706;23.328;2022-09-12T15:12:27;0.30;;;0.30;;
10839;SDS011;5473;42.706;23.328;2022-09-12T15:14:54;0.20;;;0.20;;
10839;SDS011;5473;42.706;23.328;2022-09-12T15:17:25;0.20;;;0.20;;
10839;SDS011;5473;42.706;23.328;2022-09-12T15:19:51;0.23;;;0.23;;
10839;SDS011;5473;42.706;23.328;2022-09-12T15:22:18;0.20;;;0.20;;
10839;SDS011;5473;42.706;23.328;2022-09-12T15:24:50;0.20;;;0.20;;
10839;SDS011;5473;42.706;23.328;2022-09-12T15:27:17;0.20;;;0.20;;
10839;SDS011;5473;42.706;23.328;2022-09-12T15:29:45;0.20;;;0.20;;